Time;durP1;ratioP1;P1;durP2;ratioP2;P2;SDS_P1;SDS_P2;PMS_P1;PMS_P2;Temp;Humidity;BMP_temperature;BMP_pressure;BME280_temperature;BME280_humidity;BME280_pressure;Samples;Min_cycle;Max_cycle;Signal;HPM_P1;HPM_P2
2022/03/27 00:00:38;;;;;;;1.40;0.93;;;;;;;0.60;68.36;97340.50;5122407;28;20061;-56
2022/03/27 00:03:06;;;;;;;0.70;0.70;;;;;;;0.54;67.85;97343.16;5111671;28;20083;-56
2022/03/27 00:05:32;;;;;;;1.15;0.80;;;;;;;0.52;67.62;97350.00;5103230;28;20034;-56
2022/03/27 00:07:58;;;;;;;0.70;0.60;;;;;;;0.44;67.56;97357.78;5103170;28;20301;-56
2022/03/27 00:10:23;;;;;;;1.88;0.80;;;;;;;0.36;68.59;97346.03;5103165;28;20034;-56
2022/03/27 00:12:49;;;;;;;0.70;0.70;;;;;;;0.29;67.50;97360.59;5102809;28;20111;-57
2022/03/27 00:15:15;;;;;;;1.33;0.80;;;;;;;0.47;66.42;97359.41;5102612;28;20027;-59
2022/03/27 00:17:40;;;;;;;0.73;0.73;;;;;;;0.49;66.66;97362.78;5102835;28;20301;-56
2022/03/27 00:20:09;;;;;;;0.85;0.80;;;;;;;0.16;67.04;97365.91;5103195;28;20046;-57
2022/03/27 00:22:36;;;;;;;1.60;0.70;;;;;;;0.32;66.56;97355.47;5102903;28;20031;-57
2022/03/27 00:25:07;;;;;;;1.33;0.90;;;;;;;0.33;65.85;97367.31;5102687;28;20032;-57
2022/03/27 00:27:34;;;;;;;1.23;0.80;;;;;;;0.48;66.23;97369.56;5102743;28;20032;-57
2022/03/27 00:29:59;;;;;;;4.05;0.77;;;;;;;0.14;65.26;97372.75;5102595;28;20039;-57
2022/03/27 00:32:25;;;;;;;0.75;0.60;;;;;;;0.25;64.78;97364.91;5102749;28;20039;-56
2022/03/27 00:34:53;;;;;;;0.98;0.80;;;;;;;0.11;65.70;97361.75;5103783;28;20321;-57
2022/03/27 00:37:19;;;;;;;0.60;0.60;;;;;;;0.12;64.97;97384.63;5123334;28;20019;-56
2022/03/27 00:39:44;;;;;;;2.75;0.77;;;;;;;0.25;64.13;97366.63;5123206;28;20091;-56
2022/03/27 00:42:10;;;;;;;3.63;0.60;;;;;;;0.14;64.61;97370.19;5123174;28;20028;-57
2022/03/27 00:44:36;;;;;;;1.40;0.70;;;;;;;0.21;64.79;97375.16;5092331;28;20024;-57
2022/03/27 00:47:02;;;;;;;0.88;0.70;;;;;;;0.17;64.88;97374.38;5102716;28;20036;-57
2022/03/27 00:49:28;;;;;;;3.22;0.70;;;;;;;0.22;65.41;97390.41;5102804;28;20399;-57
2022/03/27 00:51:54;;;;;;;0.75;0.70;;;;;;;0.24;64.87;97375.09;5102565;28;20020;-56
2022/03/27 00:54:20;;;;;;;2.88;0.80;;;;;;;-0.05;66.56;97392.53;5102801;28;20375;-57
2022/03/27 00:56:46;;;;;;;4.68;0.80;;;;;;;0.10;67.39;97383.84;5111196;28;20019;-56
2022/03/27 00:59:12;;;;;;;0.90;0.75;;;;;;;-0.08;68.25;97395.16;5119175;28;20088;-56
2022/03/27 01:01:39;;;;;;;0.63;0.63;;;;;;;-0.06;67.91;97382.41;5102392;28;20283;-56
2022/03/27 01:04:06;;;;;;;1.63;0.80;;;;;;;0.20;68.26;97392.16;5102345;28;20348;-56
2022/03/27 01:06:35;;;;;;;5.18;0.85;;;;;;;0.07;67.75;97390.66;5102679;28;20031;-56
2022/03/27 01:11:49;;;;;;;7.18;1.65;;;;;;;0.10;70.13;97388.94;5117384;28;20055;-57
2022/03/27 01:14:24;;;;;;;1.67;0.88;;;;;;;-0.04;69.77;97373.06;5110751;28;20255;-55
2022/03/27 01:17:01;;;;;;;7.00;0.95;;;;;;;-0.04;70.55;97404.41;5126734;28;20028;-56
2022/03/27 01:19:27;;;;;;;1.52;0.65;;;;;;;-0.01;70.04;97403.53;5125620;28;20023;-56
2022/03/27 01:21:53;;;;;;;2.85;0.90;;;;;;;-0.15;69.26;97392.75;5106767;28;20217;-56
2022/03/27 01:24:19;;;;;;;0.85;0.63;;;;;;;-0.09;70.33;97401.09;5105848;28;20050;-57
2022/03/27 01:26:45;;;;;;;1.67;0.80;;;;;;;-0.61;70.81;97333.28;5104564;28;20313;-57
2022/03/27 01:29:11;;;;;;;3.67;0.80;;;;;;;-0.27;71.56;97401.38;5106172;28;20024;-57
2022/03/27 01:31:37;;;;;;;3.25;0.73;;;;;;;-0.26;71.12;97414.06;5105773;28;20049;-57
2022/03/27 01:34:04;;;;;;;2.67;0.90;;;;;;;-0.25;71.16;97382.69;5105971;28;20019;-57
2022/03/27 01:36:34;;;;;;;0.65;0.60;;;;;;;-0.52;71.90;97345.81;5120442;28;20023;-56
2022/03/27 01:39:02;;;;;;;5.03;0.98;;;;;;;-0.22;71.57;97403.00;5115899;28;20038;-56
2022/03/27 01:41:28;;;;;;;4.35;0.70;;;;;;;-0.16;71.40;97401.22;5104579;28;20195;-57
2022/03/27 01:43:53;;;;;;;2.80;1.00;;;;;;;-0.48;71.53;97407.66;5105505;28;20078;-56
2022/03/27 01:46:19;;;;;;;1.42;0.50;;;;;;;-0.31;72.69;97415.84;5105714;28;20028;-55
2022/03/27 01:48:46;;;;;;;2.80;0.90;;;;;;;-0.27;71.45;97425.13;5105599;28;20062;-56
2022/03/27 01:51:11;;;;;;;1.45;0.70;;;;;;;-0.28;71.19;97420.88;5105023;28;20036;-55
2022/03/27 01:53:39;;;;;;;4.63;0.80;;;;;;;-0.28;71.62;97425.16;5112229;28;20032;-57
2022/03/27 01:56:08;;;;;;;1.63;0.88;;;;;;;-0.37;71.32;97426.97;5123585;28;20026;-57
2022/03/27 01:58:38;;;;;;;1.13;0.60;;;;;;;-0.42;72.10;97430.44;5105388;28;20217;-56
2022/03/27 02:01:06;;;;;;;0.70;0.70;;;;;;;-0.52;72.38;97430.53;5124568;28;20072;-61
2022/03/27 02:03:32;;;;;;;5.90;0.95;;;;;;;-0.64;72.62;97433.28;5124515;28;20023;-56
2022/03/27 02:05:57;;;;;;;2.20;0.90;;;;;;;-0.49;73.13;97427.13;5107228;28;20022;-55
2022/03/27 02:08:23;;;;;;;0.82;0.50;;;;;;;-0.52;72.22;97432.25;5105132;28;20028;-56
2022/03/27 02:10:50;;;;;;;1.30;0.70;;;;;;;-0.50;71.63;97438.16;5105136;28;20325;-56
2022/03/27 02:13:21;;;;;;;2.80;0.75;;;;;;;-0.57;71.98;97434.88;5100114;28;20044;-56
2022/03/27 02:15:47;;;;;;;1.30;0.73;;;;;;;-0.47;72.48;97437.25;5118150;28;20336;-56
2022/03/27 02:18:14;;;;;;;4.30;0.80;;;;;;;-0.57;72.28;97444.16;5103554;28;20028;-56
2022/03/27 02:20:40;;;;;;;4.38;0.80;;;;;;;-0.67;72.08;97447.69;5105137;28;20191;-56
2022/03/27 02:23:12;;;;;;;0.73;0.70;;;;;;;-0.55;72.55;97455.19;5098889;28;20031;-56
2022/03/27 02:25:38;;;;;;;1.67;0.77;;;;;;;-0.58;73.11;97453.50;5102343;28;20088;-57
2022/03/27 02:28:04;;;;;;;1.75;1.00;;;;;;;-0.53;73.83;97456.84;5102166;28;20012;-56
2022/03/27 02:30:30;;;;;;;2.83;1.30;;;;;;;-0.60;75.08;97457.78;5102580;28;20023;-55
2022/03/27 02:32:56;;;;;;;3.10;0.85;;;;;;;-0.71;75.17;97464.72;5101765;28;20283;-56
2022/03/27 02:35:23;;;;;;;3.53;0.80;;;;;;;-0.61;75.79;97468.81;5102993;28;20086;-55
2022/03/27 02:37:48;;;;;;;2.22;0.70;;;;;;;-0.78;76.19;97473.25;5104438;28;20032;-57
2022/03/27 02:40:14;;;;;;;3.83;0.82;;;;;;;-0.94;77.16;97468.34;5104203;28;20054;-55
2022/03/27 02:42:40;;;;;;;6.63;0.90;;;;;;;-0.99;76.94;97457.41;5101927;28;20016;-56
2022/03/27 02:45:06;;;;;;;1.00;0.80;;;;;;;-0.72;76.09;97475.72;5104195;28;20061;-57
2022/03/27 02:47:32;;;;;;;5.13;1.00;;;;;;;-0.72;77.29;97479.09;5104204;28;20024;-56
2022/03/27 02:49:58;;;;;;;1.58;0.80;;;;;;;-0.68;76.78;97476.50;5105043;28;20205;-57
2022/03/27 02:52:24;;;;;;;1.20;0.88;;;;;;;-0.71;77.24;97479.97;5100772;28;20035;-56
2022/03/27 02:54:50;;;;;;;4.03;1.17;;;;;;;-0.75;75.91;97483.38;5102538;28;20072;-56
2022/03/27 02:57:16;;;;;;;1.17;0.80;;;;;;;-0.77;76.76;97482.53;5101610;28;20024;-56
2022/03/27 02:59:42;;;;;;;6.95;1.55;;;;;;;-0.65;76.08;97489.19;5102872;28;20047;-56
2022/03/27 03:02:08;;;;;;;1.52;0.85;;;;;;;-0.63;76.62;97501.00;5103272;28;20069;-57
2022/03/27 03:04:37;;;;;;;2.95;1.10;;;;;;;-0.81;75.54;97491.94;5104295;28;20028;-55
2022/03/27 03:07:03;;;;;;;2.15;1.10;;;;;;;-0.82;75.79;97507.19;5104103;28;20321;-56
2022/03/27 03:09:29;;;;;;;2.60;1.10;;;;;;;-0.85;75.54;97510.59;5103971;28;20096;-56
2022/03/27 03:11:55;;;;;;;2.85;1.27;;;;;;;-0.74;75.19;97515.53;5103881;28;20236;-56
2022/03/27 03:14:20;;;;;;;4.70;1.50;;;;;;;-0.76;74.84;97524.91;5107881;28;20031;-57
2022/03/27 03:16:47;;;;;;;4.75;1.95;;;;;;;-0.82;74.20;97530.88;5123275;28;20035;-56
2022/03/27 03:19:13;;;;;;;6.03;1.55;;;;;;;-0.91;73.61;97541.16;5124689;28;20063;-56
2022/03/27 03:21:40;;;;;;;4.63;1.10;;;;;;;-1.34;74.45;97542.41;5109458;28;20031;-55
2022/03/27 03:24:06;;;;;;;6.07;1.23;;;;;;;-1.28;73.39;97531.38;5103800;28;20262;-55
2022/03/27 03:26:32;;;;;;;4.55;1.00;;;;;;;-1.29;73.32;97540.66;5104903;28;20019;-57
2022/03/27 03:28:58;;;;;;;3.53;1.00;;;;;;;-1.14;71.44;97549.00;5083482;28;20352;-57
2022/03/27 03:31:23;;;;;;;1.95;1.00;;;;;;;-1.40;72.17;97552.59;5097156;28;20028;-55
2022/03/27 03:33:49;;;;;;;2.45;1.05;;;;;;;-1.37;71.71;97556.81;5099563;28;20023;-55
2022/03/27 03:36:15;;;;;;;3.60;1.00;;;;;;;-1.30;70.68;97566.91;5114989;28;20043;-57
2022/03/27 03:38:41;;;;;;;4.43;0.88;;;;;;;-1.26;70.91;97576.19;5123870;28;20320;-56
2022/03/27 03:41:08;;;;;;;1.35;0.88;;;;;;;-1.17;70.09;97574.41;5124035;28;20082;-56
2022/03/27 03:43:36;;;;;;;1.60;0.95;;;;;;;-1.26;71.38;97567.72;5103711;28;20016;-56
2022/03/27 03:46:05;;;;;;;2.15;0.93;;;;;;;-1.12;70.70;97593.00;5101039;28;20206;-61
2022/03/27 03:48:32;;;;;;;2.47;1.00;;;;;;;-1.22;70.38;97587.16;5102215;28;20024;-56
2022/03/27 03:50:58;;;;;;;2.28;0.88;;;;;;;-1.20;70.42;97594.75;5111948;28;20043;-56
2022/03/27 03:53:24;;;;;;;2.30;0.90;;;;;;;-1.20;70.35;97622.69;5113781;28;20307;-56
2022/03/27 03:55:50;;;;;;;2.80;1.10;;;;;;;-1.27;70.98;97649.81;5085307;28;20016;-58
2022/03/27 03:58:16;;;;;;;2.30;1.00;;;;;;;-1.43;71.02;97616.09;5103203;28;20030;-55
2022/03/27 04:00:42;;;;;;;3.58;0.75;;;;;;;-1.48;70.29;97628.81;5103184;28;20023;-55
2022/03/27 04:03:09;;;;;;;5.43;1.33;;;;;;;-1.60;71.26;97631.44;5113404;28;20023;-56
2022/03/27 04:05:35;;;;;;;6.35;1.25;;;;;;;-1.60;69.77;97622.09;5107269;28;20076;-55
2022/03/27 04:08:00;;;;;;;10.30;0.98;;;;;;;-1.53;69.35;97637.31;5103067;28;20248;-56
2022/03/27 04:10:27;;;;;;;2.47;1.02;;;;;;;-1.40;69.90;97657.53;5102078;28;20036;-55
2022/03/27 04:12:52;;;;;;;1.75;0.80;;;;;;;-1.55;68.73;97662.72;5100375;28;20060;-55
2022/03/27 04:15:18;;;;;;;1.77;0.82;;;;;;;-1.64;68.97;97655.13;5093173;28;20350;-56
2022/03/27 04:17:45;;;;;;;1.95;0.63;;;;;;;-1.71;67.83;97654.34;5109870;28;20028;-54
2022/03/27 04:20:12;;;;;;;5.68;1.00;;;;;;;-1.97;67.73;97611.34;5121263;28;20038;-56
2022/03/27 04:22:40;;;;;;;2.25;0.90;;;;;;;-1.64;68.59;97681.38;5103249;28;20020;-56
2022/03/27 04:25:06;;;;;;;2.25;1.10;;;;;;;-1.54;67.38;97681.31;5103200;28;20077;-55
2022/03/27 04:27:31;;;;;;;1.55;1.35;;;;;;;-1.46;67.84;97687.19;5092923;28;20032;-56
2022/03/27 04:29:57;;;;;;;1.65;1.00;;;;;;;-1.71;68.25;97654.34;5089866;28;20036;-56
2022/03/27 04:32:23;;;;;;;2.58;1.00;;;;;;;-1.43;69.92;97687.16;5102455;28;20028;-55
2022/03/27 04:34:50;;;;;;;2.90;0.90;;;;;;;-1.84;69.85;97681.47;5102280;28;20059;-56
2022/03/27 04:37:18;;;;;;;2.22;0.90;;;;;;;-1.71;71.23;97709.31;5102324;28;20317;-56
2022/03/27 04:39:44;;;;;;;2.10;0.98;;;;;;;-1.75;68.75;97719.47;5101269;28;20175;-56
2022/03/27 04:42:09;;;;;;;1.77;1.00;;;;;;;-1.72;68.57;97731.31;5115394;28;20027;-55
2022/03/27 04:44:35;;;;;;;2.65;0.77;;;;;;;-1.71;67.31;97744.81;5096917;28;20092;-55
2022/03/27 04:47:01;;;;;;;3.25;0.88;;;;;;;-1.67;67.74;97732.13;5106301;28;20084;-55
2022/03/27 04:49:27;;;;;;;3.20;0.82;;;;;;;-1.61;66.41;97716.03;5106595;28;20087;-56
2022/03/27 04:51:53;;;;;;;1.25;0.80;;;;;;;-1.45;66.99;97739.66;5106200;28;20024;-58
2022/03/27 04:54:18;;;;;;;9.52;0.90;;;;;;;-1.61;67.26;97751.53;5106234;28;20023;-55
2022/03/27 04:56:44;;;;;;;1.60;0.80;;;;;;;-1.66;68.50;97754.09;5106119;28;20028;-56
2022/03/27 04:59:10;;;;;;;2.70;0.80;;;;;;;-1.49;67.57;97760.81;5107927;28;20027;-56
2022/03/27 05:01:36;;;;;;;0.90;0.70;;;;;;;-1.57;65.74;97738.00;5126738;28;20024;-56
2022/03/27 05:04:04;;;;;;;1.25;0.70;;;;;;;-1.71;65.01;97771.06;5108932;28;20047;-55
2022/03/27 05:06:29;;;;;;;1.10;0.70;;;;;;;-1.39;65.25;97757.38;5105797;28;20262;-56
2022/03/27 05:08:58;;;;;;;2.28;0.70;;;;;;;-1.52;66.62;97771.00;5114145;28;20037;-56
2022/03/27 05:11:25;;;;;;;2.90;0.80;;;;;;;-1.71;68.48;97766.00;5122689;28;20340;-57
2022/03/27 05:13:51;;;;;;;5.10;1.52;;;;;;;-1.93;69.91;97785.50;5105986;28;20044;-55
2022/03/27 05:16:17;;;;;;;1.73;1.20;;;;;;;-1.91;69.72;97782.09;5125445;28;20351;-56
2022/03/27 05:18:43;;;;;;;7.63;0.90;;;;;;;-2.05;70.43;97793.13;5111395;28;20066;-55
2022/03/27 05:21:09;;;;;;;3.38;1.00;;;;;;;-2.08;69.55;97801.59;5105404;28;20028;-56
2022/03/27 05:23:35;;;;;;;4.18;1.00;;;;;;;-1.84;67.85;97803.25;5107432;28;20023;-56
2022/03/27 05:26:01;;;;;;;1.90;1.02;;;;;;;-1.80;69.50;97811.66;5105139;28;20095;-55
2022/03/27 05:28:26;;;;;;;1.48;0.93;;;;;;;-1.74;68.92;97819.25;5103357;28;20205;-55
2022/03/27 05:30:54;;;;;;;6.22;1.10;;;;;;;-1.64;68.66;97817.53;5102284;28;20020;-56
2022/03/27 05:33:20;;;;;;;1.30;0.82;;;;;;;-1.77;68.59;97814.19;5103846;28;20085;-57
2022/03/27 05:35:45;;;;;;;2.95;0.90;;;;;;;-1.72;67.32;97820.13;5111926;28;20321;-57
2022/03/27 05:38:11;;;;;;;2.42;0.82;;;;;;;-1.89;66.24;97835.38;5122806;28;20024;-56
2022/03/27 05:40:37;;;;;;;2.70;0.90;;;;;;;-1.78;65.82;97830.25;5105691;28;20064;-56
2022/03/27 05:43:03;;;;;;;6.47;1.08;;;;;;;-1.69;66.29;97825.19;5103745;28;20145;-55
2022/03/27 05:45:47;;;;;;;2.47;0.90;;;;;;;-1.70;64.50;97830.25;5105485;28;20073;-55
2022/03/27 05:48:14;;;;;;;1.35;0.93;;;;;;;-1.59;64.48;97846.31;5105098;28;20458;-57
2022/03/27 05:50:40;;;;;;;2.42;1.10;;;;;;;-1.65;63.17;97836.19;5110409;28;20024;-55
2022/03/27 05:53:05;;;;;;;2.60;0.90;;;;;;;-1.59;63.42;97831.06;5118221;28;20085;-54
2022/03/27 05:55:31;;;;;;;3.67;0.90;;;;;;;-1.57;62.40;97848.00;5125601;28;20058;-57
2022/03/27 05:57:56;;;;;;;1.90;1.23;;;;;;;-1.75;61.76;97858.19;5109190;28;20040;-55
2022/03/27 06:00:23;;;;;;;1.65;0.60;;;;;;;-1.50;61.37;97858.13;5120896;28;20035;-56
2022/03/27 06:02:51;;;;;;;3.10;0.73;;;;;;;-1.48;60.13;97858.94;5104637;28;20294;-55
2022/03/27 06:05:18;;;;;;;1.25;0.88;;;;;;;-1.45;60.24;97861.50;5105008;28;20034;-56
2022/03/27 06:07:47;;;;;;;1.67;0.77;;;;;;;-1.24;57.97;97880.88;5104986;28;20024;-56
2022/03/27 06:10:14;;;;;;;3.53;0.90;;;;;;;-1.51;58.22;97874.19;5104650;28;20070;-54
2022/03/27 06:12:43;;;;;;;4.60;0.90;;;;;;;-1.24;57.07;97884.28;5103692;28;20036;-56
2022/03/27 06:15:09;;;;;;;2.63;0.95;;;;;;;-0.63;57.26;97872.09;5102840;28;20035;-56
2022/03/27 06:17:39;;;;;;;0.75;0.70;;;;;;;-0.92;57.32;97898.53;5107806;28;20031;-56
2022/03/27 06:20:06;;;;;;;3.03;0.93;;;;;;;-1.21;60.54;97880.88;5124182;28;20023;-55
2022/03/27 06:22:31;;;;;;;5.43;1.10;;;;;;;-1.16;63.40;97913.88;5124704;28;20038;-56
2022/03/27 06:24:57;;;;;;;3.58;1.30;;;;;;;-1.27;65.07;97916.44;5108143;28;20023;-56
2022/03/27 06:27:22;;;;;;;2.67;1.27;;;;;;;-1.36;68.48;97916.47;5098001;28;20020;-56
2022/03/27 06:29:48;;;;;;;5.10;0.90;;;;;;;-1.20;70.21;97919.81;5090349;28;20026;-56
2022/03/27 06:32:14;;;;;;;1.48;0.90;;;;;;;-1.28;69.72;97913.06;5103960;28;20020;-55
2022/03/27 06:34:39;;;;;;;2.88;0.82;;;;;;;-1.04;70.84;97921.47;5104610;28;20023;-59
2022/03/27 06:37:05;;;;;;;6.03;1.30;;;;;;;-1.06;70.41;97939.22;5104245;28;20035;-56
2022/03/27 06:39:30;;;;;;;2.53;1.00;;;;;;;-1.65;65.94;97923.28;5104074;28;20038;-54
2022/03/27 06:41:56;;;;;;;3.58;0.80;;;;;;;-1.38;66.63;97929.16;5104250;28;20031;-56
2022/03/27 06:44:21;;;;;;;1.42;0.80;;;;;;;-1.39;62.87;97945.25;5103584;28;20331;-55
2022/03/27 06:46:47;;;;;;;1.63;0.88;;;;;;;-1.39;62.76;97951.16;5103962;28;20117;-54
2022/03/27 06:49:12;;;;;;;1.55;1.08;;;;;;;-0.87;61.46;97945.09;5104221;28;20252;-56
2022/03/27 06:51:38;;;;;;;2.08;1.00;;;;;;;-0.83;60.00;97950.16;5098993;28;20036;-55
2022/03/27 06:54:04;;;;;;;4.13;1.00;;;;;;;-0.61;61.61;97961.94;5103719;28;20020;-56
2022/03/27 06:56:30;;;;;;;4.82;1.02;;;;;;;-1.19;64.40;97964.69;5103764;28;20058;-55
2022/03/27 06:58:56;;;;;;;5.30;1.35;;;;;;;-1.24;66.93;97962.13;5103676;28;20034;-55
2022/03/27 07:04:19;;;;;;;1.80;1.08;;;;;;;-1.70;65.27;97988.41;5087267;28;20355;-56
2022/03/27 07:06:45;;;;;;;6.85;1.55;;;;;;;-1.59;64.95;97994.34;5103527;28;20023;-56
2022/03/27 07:09:12;;;;;;;4.07;0.95;;;;;;;-1.76;63.18;98009.56;5103776;28;20073;-56
2022/03/27 07:11:38;;;;;;;2.15;1.17;;;;;;;-1.41;63.69;98005.31;5108123;28;20043;-55
2022/03/27 07:14:04;;;;;;;3.33;1.20;;;;;;;-1.44;63.08;98002.78;5087425;28;20073;-55
2022/03/27 07:16:31;;;;;;;1.35;0.95;;;;;;;-1.47;63.63;97997.72;5123821;28;20205;-55
2022/03/27 07:18:56;;;;;;;4.68;1.20;;;;;;;-1.20;63.63;98009.53;5108279;28;20024;-56
2022/03/27 07:21:22;;;;;;;5.15;1.33;;;;;;;-1.10;62.63;98023.94;5114104;28;20063;-55
2022/03/27 07:23:47;;;;;;;4.47;1.23;;;;;;;-1.05;60.75;98018.81;5118013;28;20228;-56
2022/03/27 07:26:13;;;;;;;3.00;1.10;;;;;;;-0.95;61.33;98030.66;5103296;28;20023;-55
2022/03/27 07:28:39;;;;;;;3.83;1.23;;;;;;;-1.05;60.76;98029.81;5102977;28;20198;-56
2022/03/27 07:31:05;;;;;;;5.55;1.10;;;;;;;-0.72;59.42;98045.00;5103427;28;20031;-56
2022/03/27 07:33:31;;;;;;;3.40;1.27;;;;;;;-0.84;58.47;98039.94;5103037;28;20039;-56
2022/03/27 07:35:57;;;;;;;1.58;0.90;;;;;;;-1.09;59.10;98023.06;5110169;28;20034;-56
2022/03/27 07:38:22;;;;;;;2.38;1.20;;;;;;;-1.10;58.26;98021.38;5121258;28;20032;-55
2022/03/27 07:40:48;;;;;;;2.80;1.40;;;;;;;-0.89;58.79;98048.41;5103121;28;20028;-56
2022/03/27 07:43:14;;;;;;;3.72;1.23;;;;;;;-1.22;59.42;98049.31;5109933;28;20574;-55
2022/03/27 07:45:39;;;;;;;3.58;1.45;;;;;;;-1.29;58.73;98057.81;5095634;28;20034;-56
2022/03/27 07:48:05;;;;;;;3.47;1.30;;;;;;;-1.19;59.29;98066.25;5110894;28;20023;-56
2022/03/27 07:50:32;;;;;;;2.35;1.10;;;;;;;-0.98;58.63;98062.81;5114164;28;20089;-57
2022/03/27 07:52:59;;;;;;;2.22;1.13;;;;;;;-1.05;57.85;98062.84;5101324;28;20043;-56
2022/03/27 07:55:25;;;;;;;4.95;1.33;;;;;;;-0.86;57.57;98070.44;5104207;28;20028;-56
2022/03/27 07:57:51;;;;;;;1.38;1.00;;;;;;;-0.90;58.90;98072.16;5102627;28;20024;-56
2022/03/27 08:00:17;;;;;;;2.95;1.33;;;;;;;-0.88;59.36;98065.38;5102814;28;20024;-55
2022/03/27 08:02:44;;;;;;;3.80;1.48;;;;;;;-0.99;59.12;98086.56;5103031;28;20027;-56
2022/03/27 08:05:11;;;;;;;2.92;1.13;;;;;;;-0.96;60.14;98091.63;5102578;28;20074;-56
2022/03/27 08:07:37;;;;;;;2.33;1.45;;;;;;;-1.18;59.49;98095.88;5102987;28;20278;-55
2022/03/27 08:10:04;;;;;;;4.75;1.13;;;;;;;-0.93;59.85;98117.88;5102607;28;20216;-56
2022/03/27 08:12:30;;;;;;;4.10;1.30;;;;;;;-0.83;58.96;98117.88;5102788;28;20052;-56
2022/03/27 08:14:55;;;;;;;2.28;1.23;;;;;;;-0.85;59.88;98122.13;5102569;28;20096;-55
2022/03/27 08:17:21;;;;;;;2.08;1.10;;;;;;;-1.25;55.91;98108.56;5119695;28;20032;-55
2022/03/27 08:19:48;;;;;;;2.28;1.13;;;;;;;-1.09;57.14;98106.88;5123100;28;20027;-56
2022/03/27 08:22:15;;;;;;;2.78;1.48;;;;;;;-0.83;57.04;98117.88;5105393;28;20024;-56
2022/03/27 08:24:41;;;;;;;2.45;1.05;;;;;;;-0.95;57.59;98128.91;5115294;28;20027;-56
2022/03/27 08:27:08;;;;;;;3.90;1.38;;;;;;;-1.29;59.79;98132.28;5114822;28;20020;-57
2022/03/27 08:29:39;;;;;;;4.03;1.35;;;;;;;-1.51;59.15;98060.34;5105654;28;20025;-55
2022/03/27 08:32:13;;;;;;;2.33;1.37;;;;;;;-1.18;58.79;98096.75;5087678;28;20096;-56
2022/03/27 08:34:43;;;;;;;2.72;1.27;;;;;;;-1.12;59.60;98136.53;5082393;28;20054;-56
2022/03/27 08:37:12;;;;;;;2.75;1.40;;;;;;;-1.26;58.71;98063.72;5098694;28;20032;-56
2022/03/27 08:39:39;;;;;;;1.95;1.60;;;;;;;-0.90;57.04;98132.28;5114863;28;20094;-56
2022/03/27 08:42:05;;;;;;;2.05;1.33;;;;;;;-0.92;58.93;98139.91;5114984;28;20035;-55
2022/03/27 08:44:34;;;;;;;3.55;1.67;;;;;;;-0.90;59.77;98150.06;5102047;28;20320;-56
2022/03/27 08:47:04;;;;;;;2.17;1.30;;;;;;;-1.50;59.40;98078.94;5102093;28;20028;-55
2022/03/27 08:49:40;;;;;;;2.67;1.13;;;;;;;-1.05;58.16;98176.31;5122066;28;20101;-55
2022/03/27 08:52:10;;;;;;;4.22;1.45;;;;;;;-0.77;57.58;98155.97;5114601;28;20076;-56
2022/03/27 08:54:48;;;;;;;3.78;1.40;;;;;;;-0.90;56.92;98165.31;5102837;28;20258;-56
2022/03/27 08:57:26;;;;;;;4.00;1.60;;;;;;;-0.77;57.03;98143.28;5102180;28;20028;-55
2022/03/27 08:59:53;;;;;;;2.97;1.25;;;;;;;-0.61;55.63;98154.28;5102194;28;20024;-55
2022/03/27 09:02:24;;;;;;;4.25;1.58;;;;;;;-0.53;54.52;98152.56;5102183;28;20269;-56
2022/03/27 09:04:54;;;;;;;3.20;1.38;;;;;;;-0.14;55.18;98170.25;5102260;28;20153;-56
2022/03/27 09:07:29;;;;;;;4.90;1.45;;;;;;;0.11;53.72;98182.03;5102125;28;20020;-56
2022/03/27 09:09:56;;;;;;;1.95;1.00;;;;;;;0.25;52.03;98189.63;5102303;28;20075;-59
2022/03/27 09:12:22;;;;;;;2.35;1.10;;;;;;;-0.24;49.92;98177.94;5105260;28;20091;-56
2022/03/27 09:14:49;;;;;;;6.55;1.10;;;;;;;0.05;50.16;98199.88;5086608;28;20333;-56
2022/03/27 09:17:15;;;;;;;1.67;1.10;;;;;;;-0.16;51.97;98203.34;5101906;28;20375;-56
2022/03/27 09:19:46;;;;;;;6.30;0.80;;;;;;;-0.39;51.30;98200.84;5101801;28;20032;-56
2022/03/27 09:22:28;;;;;;;3.33;1.00;;;;;;;-0.12;52.26;98222.00;5102037;28;20023;-56
2022/03/27 09:25:04;;;;;;;8.85;1.10;;;;;;;-0.74;51.49;98167.00;5101938;28;20040;-57
2022/03/27 09:27:33;;;;;;;0.82;0.82;;;;;;;-0.36;50.65;98213.56;5101602;28;20052;-55
2022/03/27 09:30:10;;;;;;;1.10;0.93;;;;;;;-0.27;52.34;98223.72;5105704;28;20041;-57
2022/03/27 09:32:45;;;;;;;1.38;1.00;;;;;;;-0.19;50.95;98222.00;5108551;28;20104;-56
2022/03/27 09:35:12;;;;;;;1.77;1.00;;;;;;;0.36;53.07;98232.88;5125983;28;20035;-56
2022/03/27 09:37:45;;;;;;;5.10;1.23;;;;;;;0.31;50.57;98235.44;5125805;28;20317;-56
2022/03/27 09:40:12;;;;;;;6.57;1.23;;;;;;;0.22;51.59;98225.28;5109064;28;20020;-57
2022/03/27 09:42:40;;;;;;;1.40;0.95;;;;;;;0.25;51.25;98234.63;5116734;28;20193;-56
2022/03/27 09:45:23;;;;;;;3.40;0.70;;;;;;;-0.32;51.59;98209.31;5092591;28;20024;-58
2022/03/27 09:47:55;;;;;;;0.88;0.88;;;;;;;-0.43;53.40;98271.22;5104922;28;20095;-59
2022/03/27 09:50:38;;;;;;;2.42;1.35;;;;;;;-0.71;55.17;98181.41;5105719;28;20036;-55
2022/03/27 09:53:28;;;;;;;13.48;7.00;;;;;;;-0.15;54.81;98257.63;5117200;28;20061;-56
2022/03/27 09:55:53;;;;;;;1.50;1.35;;;;;;;-0.35;56.32;98261.03;5084996;28;20024;-56
2022/03/27 09:58:44;;;;;;;4.70;1.30;;;;;;;-0.69;55.71;98283.91;5102054;28;20031;-57
2022/03/27 10:01:18;;;;;;;4.55;1.38;;;;;;;-1.15;58.27;98213.56;5121011;28;20039;-56
2022/03/27 10:04:01;;;;;;;2.20;1.15;;;;;;;-0.75;55.97;98233.91;5112647;28;20027;-55
2022/03/27 10:06:36;;;;;;;3.25;1.48;;;;;;;-1.01;55.08;98205.97;5084796;28;20035;-56
2022/03/27 10:09:04;;;;;;;5.00;1.30;;;;;;;-0.77;56.68;98296.63;5090871;28;20082;-57
2022/03/27 10:11:30;;;;;;;1.25;1.10;;;;;;;-0.65;57.43;98294.94;5103572;28;20044;-57
2022/03/27 10:13:56;;;;;;;2.97;1.50;;;;;;;-0.26;57.84;98300.88;5104129;28;20078;-56
2022/03/27 10:16:26;;;;;;;3.42;1.30;;;;;;;-0.32;57.82;98319.53;5104338;28;20028;-56
2022/03/27 10:19:05;;;;;;;7.18;1.55;;;;;;;-0.55;61.77;98307.66;5104312;28;20111;-56
2022/03/27 10:21:32;;;;;;;3.17;1.17;;;;;;;-0.54;63.57;98327.16;5115006;28;20038;-57
2022/03/27 10:24:08;;;;;;;6.47;1.60;;;;;;;-1.26;62.47;98246.53;5123389;28;20122;-56
2022/03/27 10:26:34;;;;;;;4.43;1.15;;;;;;;-0.96;62.29;98338.91;5119050;28;20212;-56
2022/03/27 10:29:02;;;;;;;3.25;1.10;;;;;;;-1.05;64.59;98366.84;5103156;28;20043;-56
2022/03/27 10:31:27;;;;;;;4.38;1.70;;;;;;;-1.13;64.08;98327.88;5100183;28;20169;-55
2022/03/27 10:33:55;;;;;;;1.67;1.27;;;;;;;-1.21;65.19;98348.16;5096089;28;20028;-56
2022/03/27 10:36:42;;;;;;;2.85;1.30;;;;;;;-1.16;63.72;98348.19;5113291;28;20028;-57
2022/03/27 10:39:42;;;;;;;3.15;1.10;;;;;;;-1.15;62.37;98337.19;5122435;28;20096;-56
2022/03/27 10:42:38;;;;;;;2.10;1.40;;;;;;;-0.88;61.59;98349.97;5110812;28;20167;-58
2022/03/27 10:45:17;;;;;;;4.88;1.73;;;;;;;-0.87;59.92;98356.75;5110252;28;20030;-56
2022/03/27 10:47:43;;;;;;;2.47;1.15;;;;;;;-0.78;57.57;98362.72;5120776;28;20206;-56
2022/03/27 10:50:08;;;;;;;3.10;1.00;;;;;;;-0.86;59.01;98362.66;5098673;28;20054;-56
2022/03/27 10:52:45;;;;;;;1.80;1.20;;;;;;;-1.37;58.50;98293.91;5101400;28;20036;-56
2022/03/27 10:55:13;;;;;;;2.65;1.20;;;;;;;-1.15;60.31;98337.19;5119409;28;20030;-56
2022/03/27 10:57:41;;;;;;;3.28;1.00;;;;;;;-1.57;58.35;98307.38;5108956;28;20045;-55
2022/03/27 11:00:09;;;;;;;2.05;1.10;;;;;;;-1.37;59.67;98313.38;5103480;28;20028;-56
2022/03/27 11:02:43;;;;;;;4.30;1.13;;;;;;;-1.20;59.41;98384.56;5106192;28;20283;-57
2022/03/27 11:05:28;;;;;;;2.10;1.42;;;;;;;-1.15;62.10;98383.75;5112377;28;20050;-56
2022/03/27 11:08:17;;;;;;;3.35;1.40;;;;;;;-0.98;60.50;98386.34;5119375;28;20035;-56
2022/03/27 11:10:54;;;;;;;3.42;1.40;;;;;;;-1.13;59.08;98387.13;5103607;28;20054;-55
2022/03/27 11:13:43;;;;;;;1.90;1.13;;;;;;;-1.02;56.79;98406.66;5103552;28;20091;-56
2022/03/27 11:16:11;;;;;;;6.65;1.00;;;;;;;-1.11;57.24;98342.28;5103521;28;20396;-56
2022/03/27 11:18:45;;;;;;;1.55;1.45;;;;;;;-1.11;57.03;98321.09;5103179;28;20288;-57
2022/03/27 11:21:12;;;;;;;6.57;2.80;;;;;;;-1.23;54.98;98365.94;5101988;28;20043;-56
2022/03/27 11:23:42;;;;;;;1.42;0.73;;;;;;;-0.99;53.05;98404.97;5106214;28;20039;-55
2022/03/27 11:26:19;;;;;;;1.25;1.00;;;;;;;-0.98;51.79;98414.31;5123824;28;20106;-56
2022/03/27 11:28:53;;;;;;;3.30;1.02;;;;;;;-0.88;51.66;98423.66;5086270;28;20028;-55
2022/03/27 11:31:25;;;;;;;1.00;0.77;;;;;;;-0.81;50.97;98411.81;5099615;28;20305;-55
2022/03/27 11:34:02;;;;;;;;;;;;;;;-0.66;51.56;98428.81;5103688;28;20031;-55
2022/03/27 11:36:28;;;;;;;3.20;1.33;;;;;;;-0.85;52.79;98432.16;5103126;28;19949;-56
2022/03/27 11:39:07;;;;;;;2.00;1.00;;;;;;;-0.82;52.81;98419.44;5102588;28;20024;-56
2022/03/27 11:41:45;;;;;;;2.95;1.30;;;;;;;-0.75;51.29;98447.41;5101606;28;20024;-56
2022/03/27 11:44:16;;;;;;;3.40;1.00;;;;;;;-0.80;50.54;98458.41;5102720;28;20028;-55